ADDS METAR Data INFO
IDs: Format: Raw Decoded Include TAF

Data at: 0100 UTC 22 Oct 2017

KLNP 220055Z AUTO 00000KT 10SM CLR 18/06 A3033 RMK AO2
KLNP 220035Z AUTO 00000KT 10SM CLR 18/06 A3033 RMK AO2
KLNP 220015Z AUTO 00000KT 10SM CLR 17/06 A3034 RMK AO2
KLNP 212355Z AUTO 00000KT 10SM CLR 18/06 A3034 RMK AO2
KLNP 212335Z AUTO 00000KT 10SM CLR 18/05 A3034 RMK AO2
KLNP 212315Z AUTO 00000KT 10SM CLR 20/05 A3034 RMK AO2
KLNP 212255Z AUTO 00000KT 10SM CLR 20/05 A3034 RMK AO2
KLNP 212235Z AUTO 00000KT 10SM CLR 21/07 A3034 RMK AO2
KLNP 212215Z AUTO 00000KT 10SM CLR 21/07 A3034 RMK AO2
KLNP 212155Z AUTO 00000KT 10SM CLR 21/06 A3034 RMK AO2
KLNP 212135Z AUTO 00000KT 10SM CLR 22/07 A3034 RMK AO2
KLNP 212115Z AUTO 00000KT 10SM CLR 22/06 A3034 RMK AO2
KLNP 212055Z AUTO 00000KT 10SM CLR 22/06 A3034 RMK AO2
KLNP 212035Z AUTO 16003KT 10SM CLR 22/06 A3034 RMK AO2
KLNP 212015Z AUTO 14003KT 10SM CLR 22/05 A3034 RMK AO2
KLNP 211955Z AUTO 17003KT 10SM CLR 22/05 A3033 RMK AO2
KLNP 211935Z AUTO 14003KT 10SM CLR 22/06 A3033 RMK AO2
KLNP 211915Z AUTO 13004KT 10SM CLR 23/07 A3033 RMK AO2
KLNP 211855Z AUTO 13003KT 10SM CLR 22/07 A3034 RMK AO2
KLNP 211835Z AUTO 00000KT 10SM CLR 22/07 A3034 RMK AO2
KLNP 211815Z AUTO 17003KT 10SM CLR 22/08 A3035 RMK AO2
KLNP 211755Z AUTO 13003KT 10SM CLR 22/08 A3035 RMK AO2
KLNP 211735Z AUTO 11003KT 10SM CLR 22/08 A3035 RMK AO2
KLNP 211715Z AUTO 00000KT 10SM CLR 22/06 A3036 RMK AO2
KLNP 211655Z AUTO 00000KT 10SM CLR 22/07 A3037 RMK AO2
KLNP 211635Z AUTO 00000KT 10SM CLR 21/08 A3037 RMK AO2
KLNP 211615Z AUTO 00000KT 10SM CLR 21/08 A3037 RMK AO2
KLNP 211555Z AUTO 00000KT 10SM CLR 20/07 A3037 RMK AO2
KLNP 211535Z AUTO 00000KT 10SM CLR 20/08 A3037 RMK AO2
KLNP 211515Z AUTO 24004KT 10SM CLR 19/08 A3038 RMK AO2
KLNP 211455Z AUTO 22003KT 10SM CLR 18/07 A3037 RMK AO2
KLNP 211435Z AUTO 22005KT 10SM CLR 18/08 A3037 RMK AO2
KLNP 211415Z AUTO 21004KT 10SM CLR 18/08 A3037 RMK AO2
KLNP 211355Z AUTO 23005KT 10SM CLR 17/07 A3037 RMK AO2
KLNP 211335Z AUTO 00000KT 10SM CLR 16/08 A3037 RMK AO2
KLNP 211315Z AUTO 23005KT 10SM CLR 16/08 A3036 RMK AO2
KLNP 211255Z AUTO 21004KT 10SM CLR 15/07 A3035 RMK AO2
KLNP 211235Z AUTO 20004KT 10SM CLR 13/06 A3035 RMK AO2
KLNP 211215Z AUTO 21004KT 10SM CLR 12/06 A3034 RMK AO2
KLNP 211155Z AUTO 19005KT 10SM CLR 13/06 A3033 RMK AO2
KLNP 211135Z AUTO 19004KT 10SM CLR 11/06 A3032 RMK AO2
KLNP 211115Z AUTO 18003KT 10SM CLR 12/06 A3032 RMK AO2
KLNP 211055Z AUTO 18003KT 10SM CLR 13/06 A3032 RMK AO2
KLNP 211035Z AUTO 18005KT 10SM CLR 15/06 A3031 RMK AO2
KLNP 211015Z AUTO 18006KT 10SM CLR 15/06 A3030 RMK AO2
KLNP 210955Z AUTO 17005KT 10SM CLR 15/06 A3030 RMK AO2
KLNP 210935Z AUTO 16005KT 10SM CLR 16/06 A3030 RMK AO2
KLNP 210915Z AUTO 17006KT 10SM CLR 15/06 A3029 RMK AO2
KLNP 210855Z AUTO 18004KT 10SM CLR 15/06 A3029 RMK AO2
KLNP 210835Z AUTO 17006KT 10SM CLR 16/07 A3029 RMK AO2
KLNP 210815Z AUTO 18004KT 10SM CLR 15/07 A3029 RMK AO2
KLNP 210755Z AUTO 17005KT 10SM CLR 16/07 A3028 RMK AO2
KLNP 210735Z AUTO 16005KT 10SM CLR 16/07 A3028 RMK AO2
KLNP 210715Z AUTO 16005KT 10SM CLR 16/07 A3028 RMK AO2
KLNP 210655Z AUTO 15004KT 10SM CLR 16/07 A3028 RMK AO2
KLNP 210635Z AUTO 17005KT 10SM CLR 15/07 A3028 RMK AO2
KLNP 210615Z AUTO 14003KT 10SM CLR 15/07 A3028 RMK AO2
KLNP 210555Z AUTO 17003KT 10SM CLR 12/07 A3028 RMK AO2
KLNP 210535Z AUTO 20003KT 10SM CLR 11/07 A3028 RMK AO2
KLNP 210515Z AUTO 19003KT 10SM CLR 12/07 A3029 RMK AO2
KLNP 210455Z AUTO 00000KT 10SM CLR 13/07 A3029 RMK AO2
KLNP 210435Z AUTO 00000KT 10SM CLR 13/07 A3029 RMK AO2
KLNP 210415Z AUTO 00000KT 10SM CLR 15/07 A3029 RMK AO2
KLNP 210355Z AUTO 00000KT 10SM CLR 12/07 A3030 RMK AO2
KLNP 210335Z AUTO 00000KT 10SM CLR 16/07 A3030 RMK AO2
KLNP 210315Z AUTO 00000KT 10SM CLR 13/08 A3030 RMK AO2
KLNP 210255Z AUTO 00000KT 10SM CLR 16/08 A3030 RMK AO2
KLNP 210235Z AUTO 00000KT 10SM CLR 17/08 A3030 RMK AO2
KLNP 210215Z AUTO 00000KT 10SM CLR 16/08 A3030 RMK AO2
KLNP 210155Z AUTO 00000KT 10SM CLR 17/08 A3030 RMK AO2
KLNP 210135Z AUTO 05003KT 10SM CLR 17/08 A3029 RMK AO2
KLNP 210115Z AUTO 06003KT 10SM CLR 17/08 A3029 RMK AO2
KLNP 210055Z AUTO 00000KT 10SM CLR 17/08 A3029 RMK AO2
KLNP 210035Z AUTO 00000KT 10SM CLR 17/08 A3029 RMK AO2
KLNP 210015Z AUTO 04003KT 10SM CLR 17/08 A3029 RMK AO2
KLNP 202355Z AUTO 04003KT 10SM CLR 17/08 A3029 RMK AO2
KLNP 202335Z AUTO 04003KT 10SM CLR 17/08 A3028 RMK AO2
KLNP 202315Z AUTO 03003KT 10SM CLR 18/08 A3028 RMK AO2
KLNP 202255Z AUTO 02004KT 10SM CLR 17/08 A3029 RMK AO2
KLNP 202235Z AUTO 00000KT 10SM CLR 18/08 A3029 RMK AO2
KLNP 202215Z AUTO 00000KT 10SM CLR 20/08 A3029 RMK AO2
KLNP 202155Z AUTO 01003KT 10SM CLR 21/08 A3029 RMK AO2
KLNP 202135Z AUTO 36003KT 10SM CLR 21/07 A3028 RMK AO2
KLNP 202115Z AUTO 00000KT 10SM CLR 21/07 A3029 RMK AO2
KLNP 202055Z AUTO 03005KT 10SM CLR 21/07 A3029 RMK AO2
KLNP 202035Z AUTO 35003KT 10SM CLR 22/07 A3030 RMK AO2
KLNP 202015Z AUTO 02005KT 10SM CLR 22/07 A3030 RMK AO2
KLNP 201955Z AUTO 01005KT 10SM CLR 22/07 A3030 RMK AO2
KLNP 201935Z AUTO 03003KT 10SM CLR 22/08 A3030 RMK AO2
KLNP 201915Z AUTO 01005KT 10SM CLR 21/08 A3030 RMK AO2
KLNP 201855Z AUTO 05003KT 10SM CLR 21/07 A3031 RMK AO2
KLNP 201835Z AUTO 00000KT 10SM CLR 21/08 A3032 RMK AO2
KLNP 201815Z AUTO 36004KT 10SM CLR 21/08 A3032 RMK AO2
KLNP 201755Z AUTO 00000KT 10SM CLR 20/08 A3033 RMK AO2
KLNP 201735Z AUTO 00000KT 10SM CLR 20/08 A3034 RMK AO2
KLNP 201715Z AUTO 27003KT 10SM CLR 20/08 A3035 RMK AO2
KLNP 201655Z AUTO 01005KT 10SM CLR 20/07 A3036 RMK AO2
KLNP 201635Z AUTO 34004KT 10SM CLR 18/08 A3037 RMK AO2
KLNP 201615Z AUTO 00000KT 10SM CLR 18/08 A3037 RMK AO2
KLNP 201555Z AUTO 02006KT 10SM CLR 18/08 A3038 RMK AO2
KLNP 201535Z AUTO 03007KT 10SM CLR 17/08 A3038 RMK AO2
KLNP 201515Z AUTO 03005KT 10SM CLR 17/08 A3038 RMK AO2
KLNP 201455Z AUTO 04005KT 10SM CLR 17/08 A3038 RMK AO2
KLNP 201435Z AUTO 35003KT 10SM CLR 17/08 A3038 RMK AO2
KLNP 201415Z AUTO 32003KT 10SM CLR 16/08 A3038 RMK AO2
KLNP 201355Z AUTO 00000KT 10SM CLR 16/08 A3038 RMK AO2
KLNP 201335Z AUTO 00000KT 10SM CLR 15/08 A3038 RMK AO2
KLNP 201315Z AUTO 00000KT 10SM CLR 13/09 A3038 RMK AO2